createdAt,value
2023-05-09T00:01:27.744Z,-0.01
2023-05-09T00:03:36.140Z,-0.05
2023-05-09T00:05:42.656Z,-0.07
2023-05-09T00:07:49.494Z,-0.1
2023-05-09T00:09:56.020Z,-0.13
2023-05-09T00:12:02.380Z,-0.15
2023-05-09T00:14:12.221Z,-0.2
2023-05-09T00:16:19.075Z,-0.26
2023-05-09T00:18:25.879Z,-0.32
2023-05-09T00:20:32.419Z,-0.35
2023-05-09T00:22:39.534Z,-0.39
2023-05-09T00:24:46.076Z,-0.41
2023-05-09T00:26:52.282Z,-0.45
2023-05-09T00:28:58.824Z,-0.45
2023-05-09T00:31:05.355Z,-0.44
2023-05-09T00:33:12.246Z,-0.39
2023-05-09T00:35:19.867Z,-0.35
2023-05-09T00:37:26.227Z,-0.33
2023-05-09T00:39:32.725Z,-0.36
2023-05-09T00:41:39.562Z,-0.41
2023-05-09T00:43:45.976Z,-0.48
2023-05-09T00:45:52.722Z,-0.47
2023-05-09T00:47:59.931Z,-0.47
2023-05-09T00:52:31.054Z,-0.53
2023-05-09T00:54:37.580Z,-0.57
2023-05-09T00:56:45.481Z,-0.61
2023-05-09T00:58:52.336Z,-0.65
2023-05-09T01:00:59.158Z,-0.66
2023-05-09T01:03:06.257Z,-0.67
2023-05-09T01:05:13.952Z,-0.67
2023-05-09T01:07:22.218Z,-0.68
2023-05-09T01:09:28.636Z,-0.71
2023-05-09T01:11:35.526Z,-0.74
2023-05-09T01:13:42.044Z,-0.74
2023-05-09T01:15:49.021Z,-0.75
2023-05-09T01:17:55.385Z,-0.76
2023-05-09T01:20:03.058Z,-0.79
2023-05-09T01:22:09.832Z,-0.83
2023-05-09T01:24:16.429Z,-0.85
2023-05-09T01:26:23.458Z,-0.83
2023-05-09T01:28:30.158Z,-0.84
2023-05-09T01:30:36.675Z,-0.78
2023-05-09T01:32:43.344Z,-0.72
2023-05-09T01:34:49.899Z,-0.75
2023-05-09T01:36:57.193Z,-0.78
2023-05-09T01:39:04.664Z,-0.82
2023-05-09T01:41:11.080Z,-0.86
2023-05-09T01:43:17.994Z,-0.89
2023-05-09T01:45:24.432Z,-0.93
2023-05-09T01:47:31.212Z,-0.93
2023-05-09T01:49:38.040Z,-0.94
2023-05-09T01:51:44.666Z,-0.92
2023-05-09T01:53:51.332Z,-0.94
2023-05-09T01:55:58.069Z,-0.97
2023-05-09T01:58:04.208Z,-0.99
2023-05-09T02:00:11.720Z,-1
2023-05-09T02:02:18.451Z,-1
2023-05-09T02:04:25.393Z,-1.01
2023-05-09T02:06:31.685Z,-1.04
2023-05-09T02:08:38.567Z,-0.99
2023-05-09T02:10:45.262Z,-0.95
2023-05-09T02:12:51.583Z,-0.95
2023-05-09T02:14:59.027Z,-0.91
2023-05-09T02:17:06.586Z,-0.89
2023-05-09T02:19:12.703Z,-0.9
2023-05-09T02:21:18.817Z,-0.95
2023-05-09T02:23:25.216Z,-1.01
2023-05-09T02:25:32.033Z,-1.02
2023-05-09T02:27:38.729Z,-1.04
2023-05-09T02:29:45.251Z,-1.05
2023-05-09T02:31:51.511Z,-1.08
2023-05-09T02:33:57.934Z,-1.08
2023-05-09T02:36:04.534Z,-1.07
2023-05-09T02:38:11.051Z,-1.11
2023-05-09T02:40:17.920Z,-1.11
2023-05-09T02:42:24.985Z,-1.14
2023-05-09T02:44:32.075Z,-1.12
2023-05-09T02:46:40.206Z,-1.12
2023-05-09T02:48:47.221Z,-1.09
2023-05-09T02:50:54.404Z,-1.09
2023-05-09T02:53:01.002Z,-1.11
2023-05-09T02:55:08.336Z,-1.13
2023-05-09T02:57:15.367Z,-1.14
2023-05-09T02:59:22.126Z,-1.14
2023-05-09T03:01:28.124Z,-1.12
2023-05-09T03:03:34.879Z,-1.14
2023-05-09T03:05:41.946Z,-1.14
2023-05-09T03:07:48.494Z,-1.15
2023-05-09T03:09:54.743Z,-1.18
2023-05-09T03:12:01.414Z,-1.18
2023-05-09T03:14:07.757Z,-1.13
2023-05-09T03:16:14.625Z,-1.11
2023-05-09T03:18:21.524Z,-1.14
2023-05-09T03:20:28.692Z,-1.14
2023-05-09T03:22:35.054Z,-1.09
2023-05-09T03:24:41.609Z,-1.07
2023-05-09T03:26:48.603Z,-1.03
2023-05-09T03:28:58.342Z,-0.98
2023-05-09T03:31:05.613Z,-0.94
2023-05-09T03:33:12.310Z,-0.9
2023-05-09T03:35:18.616Z,-0.88
2023-05-09T03:37:27.021Z,-0.85
2023-05-09T03:39:33.852Z,-0.8
2023-05-09T03:41:40.496Z,-0.78
2023-05-09T03:43:47.528Z,-0.74
2023-05-09T03:45:54.570Z,-0.73
2023-05-09T03:48:01.352Z,-0.72
2023-05-09T03:50:09.884Z,-0.72
2023-05-09T03:52:16.258Z,-0.7
2023-05-09T03:56:47.030Z,-0.64
2023-05-09T03:58:53.414Z,-0.6
2023-05-09T04:01:00.002Z,-0.56
2023-05-09T04:03:06.580Z,-0.51
2023-05-09T04:05:15.020Z,-0.47
2023-05-09T04:07:22.277Z,-0.39
2023-05-09T04:09:28.591Z,-0.33
2023-05-09T04:11:35.510Z,-0.26
2023-05-09T04:13:44.123Z,-0.16
2023-05-09T04:15:51.133Z,-0.09
2023-05-09T04:17:58.303Z,0.01
2023-05-09T04:20:05.332Z,0.08
2023-05-09T04:22:12.481Z,0.16
2023-05-09T04:24:19.377Z,0.27
2023-05-09T04:26:25.812Z,0.34
2023-05-09T04:28:32.933Z,0.43
2023-05-09T04:30:39.774Z,0.47
2023-05-09T04:32:46.510Z,0.58
2023-05-09T04:34:53.681Z,0.7
2023-05-09T04:37:00.970Z,0.86
2023-05-09T04:39:07.700Z,0.93
2023-05-09T04:41:15.517Z,1.16
2023-05-09T04:43:22.357Z,1.4
2023-05-09T04:45:29.193Z,1.66
2023-05-09T04:47:35.756Z,2.08
2023-05-09T04:49:42.636Z,2.38
2023-05-09T04:51:49.655Z,2.58
2023-05-09T04:53:57.016Z,2.79
2023-05-09T04:56:04.952Z,3.02
2023-05-09T04:58:12.024Z,3.33
2023-05-09T05:00:18.275Z,3.52
2023-05-09T05:02:25.225Z,3.78
2023-05-09T05:04:32.628Z,4.01
2023-05-09T05:06:39.609Z,4.1
2023-05-09T05:08:47.237Z,4.51
2023-05-09T05:10:54.422Z,4.51
2023-05-09T05:13:00.546Z,4.68
2023-05-09T05:15:06.916Z,5.11
2023-05-09T05:17:13.731Z,5.29
2023-05-09T05:19:20.765Z,5.7
2023-05-09T05:21:27.144Z,5.97
2023-05-09T05:23:33.900Z,6.21
2023-05-09T05:25:41.089Z,6.72
2023-05-09T05:27:47.530Z,6.88
2023-05-09T05:29:53.751Z,6.93
2023-05-09T05:32:00.428Z,7.1
2023-05-09T05:34:07.363Z,7.19
2023-05-09T05:36:13.883Z,7.63
2023-05-09T05:38:20.409Z,8.12
2023-05-09T05:40:26.821Z,8.6
2023-05-09T05:42:33.317Z,8.56
2023-05-09T05:44:40.311Z,8.67
2023-05-09T05:46:48.043Z,8.64
2023-05-09T05:48:54.546Z,8.89
2023-05-09T05:51:01.303Z,8.73
2023-05-09T05:53:07.846Z,8.71
2023-05-09T05:55:14.385Z,8.72
2023-05-09T05:57:21.316Z,9.15
2023-05-09T05:59:27.712Z,9.2
2023-05-09T06:01:34.002Z,9.49
2023-05-09T06:03:40.729Z,9.5
2023-05-09T06:05:47.320Z,9.66
2023-05-09T06:07:53.685Z,9.69
2023-05-09T06:10:00.056Z,9.89
2023-05-09T06:12:07.316Z,10.19
2023-05-09T06:14:15.156Z,10.35
2023-05-09T06:16:22.479Z,10.57
2023-05-09T06:18:29.158Z,10.69
2023-05-09T06:20:35.692Z,10.82
2023-05-09T06:22:44.177Z,10.93
2023-05-09T06:24:51.301Z,10.98
2023-05-09T06:26:57.998Z,11.09
2023-05-09T06:29:04.564Z,11.39
2023-05-09T06:31:10.654Z,11.55
2023-05-09T06:33:17.514Z,11.73
2023-05-09T06:35:24.827Z,11.88
2023-05-09T06:37:31.443Z,12
2023-05-09T06:39:41.277Z,12.15
2023-05-09T06:41:48.178Z,12.21
2023-05-09T06:43:54.875Z,12.28
2023-05-09T06:46:01.177Z,12.48
2023-05-09T06:48:08.056Z,12.54
2023-05-09T06:50:18.354Z,12.64
2023-05-09T06:52:25.341Z,12.8
2023-05-09T06:54:32.410Z,13
2023-05-09T06:56:39.116Z,13.14
2023-05-09T06:58:45.739Z,13.42
2023-05-09T07:00:52.166Z,13.49
2023-05-09T07:02:59.189Z,13.61
2023-05-09T07:05:06.176Z,13.87
2023-05-09T07:07:13.136Z,14.1
2023-05-09T07:09:19.425Z,14.32
2023-05-09T07:11:26.781Z,14.59
2023-05-09T07:13:34.178Z,14.62
2023-05-09T07:15:42.409Z,14.78
2023-05-09T07:17:50.314Z,14.97
2023-05-09T07:19:57.161Z,15.13
2023-05-09T07:22:03.666Z,15.03
2023-05-09T07:24:10.314Z,15.24
2023-05-09T07:26:17.029Z,15.55
2023-05-09T07:28:26.146Z,15.35
2023-05-09T07:30:34.788Z,15.51
2023-05-09T07:32:42.488Z,15.79
2023-05-09T07:34:49.077Z,15.68
2023-05-09T07:36:55.542Z,15.57
2023-05-09T07:39:03.677Z,15.29
2023-05-09T07:41:10.188Z,15.28
2023-05-09T07:43:16.721Z,15.77
2023-05-09T07:45:24.122Z,15.91
2023-05-09T07:47:37.132Z,16.06
2023-05-09T07:50:01.075Z,16.05
2023-05-09T07:52:09.355Z,16.13
2023-05-09T07:54:17.021Z,16.25
2023-05-09T07:56:27.000Z,15.51
2023-05-09T07:58:41.144Z,15.19
2023-05-09T08:00:57.568Z,14.54
2023-05-09T08:03:07.245Z,14.8
2023-05-09T08:05:21.089Z,15.19
2023-05-09T08:07:30.774Z,15.56
2023-05-09T08:09:38.824Z,15.88
2023-05-09T08:11:48.999Z,16.34
2023-05-09T08:13:56.556Z,16.41
2023-05-09T08:16:07.104Z,16.59
2023-05-09T08:18:16.126Z,17.11
2023-05-09T08:20:22.668Z,17.42
2023-05-09T08:22:33.420Z,17.37
2023-05-09T08:24:53.776Z,16.99
2023-05-09T08:27:03.560Z,17.03
2023-05-09T08:29:14.000Z,17.38
2023-05-09T08:31:22.952Z,17.22
2023-05-09T08:33:35.446Z,17.83
2023-05-09T08:35:46.346Z,18.12
2023-05-09T08:38:04.165Z,18.24
2023-05-09T08:40:13.607Z,18.31
2023-05-09T08:42:26.302Z,18.17
2023-05-09T08:44:33.478Z,17.95
2023-05-09T08:46:49.449Z,17.91
2023-05-09T08:48:57.345Z,18.01
2023-05-09T08:51:04.490Z,16.84
2023-05-09T08:53:10.848Z,16.73
2023-05-09T08:55:20.582Z,16.65
2023-05-09T08:57:31.740Z,17.59
2023-05-09T08:59:39.395Z,17.66
2023-05-09T09:01:46.309Z,17.87
2023-05-09T09:03:54.932Z,17.88
2023-05-09T09:06:12.859Z,18.06
2023-05-09T09:08:19.386Z,17.76
2023-05-09T09:10:26.124Z,18
2023-05-09T09:12:32.568Z,17.96
2023-05-09T09:14:40.819Z,17.65
2023-05-09T09:16:49.809Z,17.95
2023-05-09T09:18:58.853Z,17.29
2023-05-09T09:21:13.411Z,17.69
2023-05-09T09:23:22.481Z,18.72
2023-05-09T09:25:28.952Z,18.38
2023-05-09T09:27:35.997Z,18.05
2023-05-09T09:29:48.585Z,18.37
2023-05-09T09:31:58.484Z,18.6
2023-05-09T09:34:08.532Z,18.02
2023-05-09T09:36:17.710Z,18.01
2023-05-09T09:38:26.307Z,18.36
2023-05-09T09:40:36.267Z,18.35
2023-05-09T09:42:42.926Z,18.47
2023-05-09T09:44:52.906Z,18.43
2023-05-09T09:47:00.211Z,18.11
2023-05-09T09:49:06.691Z,18.5
2023-05-09T09:51:13.767Z,18.36
2023-05-09T09:53:20.531Z,18.74
2023-05-09T09:55:28.427Z,18.07
2023-05-09T09:57:35.070Z,17.97
2023-05-09T09:59:41.570Z,18.58
2023-05-09T10:01:48.838Z,18.6
2023-05-09T10:03:59.099Z,18.54
2023-05-09T10:06:08.331Z,18.72
2023-05-09T10:08:17.905Z,19.01
2023-05-09T10:10:29.409Z,18.73
2023-05-09T10:12:37.000Z,19.08
2023-05-09T10:14:44.128Z,19.83
2023-05-09T10:16:50.407Z,19.91
2023-05-09T10:18:57.475Z,19.13
2023-05-09T10:21:06.378Z,18.87
2023-05-09T10:23:12.871Z,19.61
2023-05-09T10:25:19.906Z,19.4
2023-05-09T10:27:26.509Z,18.85
2023-05-09T10:29:33.501Z,19.21
2023-05-09T10:31:40.535Z,19.59
2023-05-09T10:33:47.299Z,20
2023-05-09T10:35:54.459Z,19.39
2023-05-09T10:38:01.720Z,18.66
2023-05-09T10:40:08.847Z,18.71
2023-05-09T10:42:15.697Z,19.79
2023-05-09T10:44:22.538Z,19.81
2023-05-09T10:46:29.261Z,19.44
2023-05-09T10:48:35.788Z,19.01
2023-05-09T10:50:42.537Z,20.15
2023-05-09T10:52:49.245Z,19.61
2023-05-09T10:54:55.874Z,19.79
2023-05-09T10:57:02.275Z,20.8
2023-05-09T10:59:08.561Z,20.52
2023-05-09T11:01:14.685Z,20.52
2023-05-09T11:03:21.348Z,19.89
2023-05-09T11:05:28.045Z,19.25
2023-05-09T11:07:35.069Z,19.05
2023-05-09T11:09:41.368Z,18.99
2023-05-09T11:11:47.929Z,19.42
2023-05-09T11:13:54.845Z,20.4
2023-05-09T11:16:01.420Z,20.33
2023-05-09T11:18:08.236Z,21.01
2023-05-09T11:20:15.542Z,20.45
2023-05-09T11:22:22.076Z,20.18
2023-05-09T11:24:28.913Z,20.57
2023-05-09T11:26:40.032Z,20.44
2023-05-09T11:28:47.998Z,18.97
2023-05-09T11:30:54.954Z,19.61
2023-05-09T11:33:02.435Z,20.64
2023-05-09T11:35:10.271Z,20.77
2023-05-09T11:37:18.667Z,20.58
2023-05-09T11:39:25.025Z,20.11
2023-05-09T11:41:31.390Z,20.38
2023-05-09T11:43:38.530Z,21.22
2023-05-09T11:45:45.720Z,20.15
2023-05-09T11:47:53.640Z,20.38
2023-05-09T11:50:01.462Z,20.77
2023-05-09T11:52:09.082Z,20.07
2023-05-09T11:54:16.064Z,19.62
2023-05-09T11:56:22.911Z,20.42
2023-05-09T11:58:30.180Z,20.29
2023-05-09T12:00:36.347Z,20
2023-05-09T12:02:43.528Z,20.72
2023-05-09T12:04:51.663Z,20.56
2023-05-09T12:06:58.598Z,20.35
2023-05-09T12:09:04.989Z,20.26
2023-05-09T12:11:11.501Z,20.96
2023-05-09T12:13:17.655Z,20.85
2023-05-09T12:15:24.563Z,20.26
2023-05-09T12:17:31.156Z,21.03
2023-05-09T12:19:38.095Z,21.45
2023-05-09T12:21:44.669Z,21.38
2023-05-09T12:23:53.154Z,19.93
2023-05-09T12:25:59.850Z,20.12
2023-05-09T12:28:06.779Z,21.05
2023-05-09T12:30:13.790Z,20.42
2023-05-09T12:32:22.182Z,20.23
2023-05-09T12:34:28.834Z,20.14
2023-05-09T12:36:36.329Z,19.96
2023-05-09T12:38:43.578Z,20.23
2023-05-09T12:40:50.854Z,20.58
2023-05-09T12:42:57.409Z,19.82
2023-05-09T12:45:04.775Z,19.5
2023-05-09T12:47:11.506Z,19.47
2023-05-09T12:49:20.213Z,20.66
2023-05-09T12:51:27.554Z,21.32
2023-05-09T12:53:35.069Z,20.14
2023-05-09T12:55:42.784Z,20.18
2023-05-09T12:57:49.185Z,19.65
2023-05-09T12:59:55.897Z,20.08
2023-05-09T13:02:02.819Z,20.41
2023-05-09T13:04:11.222Z,19.89
2023-05-09T13:06:18.903Z,19.86
2023-05-09T13:08:26.084Z,20.14
2023-05-09T13:10:33.784Z,20.73
2023-05-09T13:12:41.669Z,21
2023-05-09T13:14:49.088Z,21.4
2023-05-09T13:16:57.192Z,21.57
2023-05-09T13:19:04.963Z,21.38
2023-05-09T13:21:12.748Z,19.98
2023-05-09T13:23:19.888Z,20.34
2023-05-09T13:25:27.142Z,20.45
2023-05-09T13:27:33.690Z,19.02
2023-05-09T13:29:40.519Z,19.35
2023-05-09T13:31:47.201Z,19.02
2023-05-09T13:33:55.232Z,18.85
2023-05-09T13:36:01.915Z,19.06
2023-05-09T13:38:09.995Z,19.72
2023-05-09T13:40:17.877Z,19.47
2023-05-09T13:42:25.285Z,20
2023-05-09T13:44:33.382Z,18.89
2023-05-09T13:46:41.432Z,19.82
2023-05-09T13:48:49.367Z,20.43
2023-05-09T13:50:56.012Z,20.3
2023-05-09T13:53:02.606Z,19.61
2023-05-09T13:55:10.187Z,19.69
2023-05-09T13:57:17.394Z,19.08
2023-05-09T13:59:24.761Z,19.7
2023-05-09T14:01:32.388Z,19.73
2023-05-09T14:03:39.734Z,19.23
2023-05-09T14:05:47.027Z,19.72
2023-05-09T14:07:53.514Z,19.27
2023-05-09T14:10:10.835Z,19.94
2023-05-09T14:12:18.811Z,20.36
2023-05-09T14:14:25.882Z,19.09
2023-05-09T14:16:33.414Z,18.85
2023-05-09T14:18:40.939Z,19.1
2023-05-09T14:20:48.414Z,19.2
2023-05-09T14:22:54.800Z,19.09
2023-05-09T14:25:01.465Z,18.26
2023-05-09T14:27:08.766Z,17.78
2023-05-09T14:29:16.770Z,17.96
2023-05-09T14:31:24.803Z,17.85
2023-05-09T14:33:32.800Z,17.28
2023-05-09T14:35:41.599Z,17.47
2023-05-09T14:37:48.999Z,17.45
2023-05-09T14:39:56.793Z,17.24
2023-05-09T14:42:05.018Z,17.3
2023-05-09T14:44:15.119Z,16.82
2023-05-09T14:46:22.418Z,16.92
2023-05-09T14:48:29.461Z,16.8
2023-05-09T14:50:35.873Z,16.71
2023-05-09T14:52:42.619Z,16.64
2023-05-09T14:54:50.306Z,16.59
2023-05-09T14:56:57.865Z,16.7
2023-05-09T14:59:06.649Z,16.75
2023-05-09T15:01:14.343Z,16.83
2023-05-09T15:03:21.921Z,16.61
2023-05-09T15:05:29.418Z,16.51
2023-05-09T15:07:36.170Z,16.69
2023-05-09T15:09:44.355Z,16.65
2023-05-09T15:11:52.512Z,16.44
2023-05-09T15:14:00.945Z,16.54
2023-05-09T15:16:08.430Z,16.41
2023-05-09T15:18:16.640Z,16.53
2023-05-09T15:20:24.378Z,16.54
2023-05-09T15:22:31.580Z,16.6
2023-05-09T15:24:39.268Z,16.59
2023-05-09T15:26:46.592Z,16.59
2023-05-09T15:28:53.980Z,16.67
2023-05-09T15:31:00.340Z,16.62
2023-05-09T15:33:09.328Z,16.57
2023-05-09T15:35:16.912Z,16.47
2023-05-09T15:37:24.756Z,16.46
2023-05-09T15:39:35.457Z,16.38
2023-05-09T15:41:42.148Z,16.51
2023-05-09T15:43:51.092Z,16.32
2023-05-09T15:45:58.948Z,16.58
2023-05-09T15:48:07.540Z,16.63
2023-05-09T15:50:15.269Z,16.91
2023-05-09T15:52:23.511Z,17.23
2023-05-09T15:54:31.065Z,17.55
2023-05-09T15:56:38.279Z,17.44
2023-05-09T15:58:45.922Z,18.24
2023-05-09T16:00:53.749Z,18.12
2023-05-09T16:03:01.194Z,18.1
2023-05-09T16:05:10.675Z,18.2
2023-05-09T16:07:20.963Z,18.38
2023-05-09T16:09:27.827Z,18.11
2023-05-09T16:11:35.467Z,18.63
2023-05-09T16:13:45.839Z,17.95
2023-05-09T16:15:54.110Z,18.18
2023-05-09T16:18:01.759Z,18.2
2023-05-09T16:20:10.368Z,17.26
2023-05-09T16:22:19.022Z,16.67
2023-05-09T16:24:26.450Z,16.27
2023-05-09T16:26:34.955Z,16.17
2023-05-09T16:28:42.844Z,15.91
2023-05-09T16:30:50.866Z,15.72
2023-05-09T16:32:58.937Z,15.65
2023-05-09T16:35:07.598Z,15.59
2023-05-09T16:37:14.385Z,15.4
2023-05-09T16:39:22.360Z,15.34
2023-05-09T16:41:29.151Z,15.2
2023-05-09T16:43:37.002Z,15.12
2023-05-09T16:45:44.483Z,15.04
2023-05-09T16:47:52.391Z,14.96
2023-05-09T16:50:01.398Z,14.97
2023-05-09T16:52:10.231Z,14.88
2023-05-09T16:54:17.993Z,14.79
2023-05-09T16:56:25.779Z,14.72
2023-05-09T16:58:34.971Z,14.67
2023-05-09T17:00:44.479Z,14.61
2023-05-09T17:02:51.018Z,14.46
2023-05-09T17:04:59.346Z,14.34
2023-05-09T17:07:09.298Z,14.35
2023-05-09T17:09:16.943Z,14.26
2023-05-09T17:11:24.419Z,14.36
2023-05-09T17:13:32.919Z,14.27
2023-05-09T17:15:40.370Z,14.15
2023-05-09T17:17:48.180Z,13.9
2023-05-09T17:20:03.579Z,13.69
2023-05-09T17:22:11.360Z,13.69
2023-05-09T17:24:19.258Z,13.51
2023-05-09T17:26:27.283Z,13.41
2023-05-09T17:28:35.425Z,13.3
2023-05-09T17:30:42.974Z,13.15
2023-05-09T17:32:50.575Z,12.97
2023-05-09T17:34:58.453Z,12.79
2023-05-09T17:37:06.085Z,12.55
2023-05-09T17:39:14.155Z,12.46
2023-05-09T17:41:22.526Z,12.32
2023-05-09T17:43:30.246Z,12.14
2023-05-09T17:45:39.128Z,11.98
2023-05-09T17:47:46.894Z,11.82
2023-05-09T17:49:54.321Z,11.68
2023-05-09T17:52:03.512Z,11.5
2023-05-09T17:54:11.810Z,11.32
2023-05-09T17:56:19.748Z,11.07
2023-05-09T17:58:27.948Z,10.91
2023-05-09T18:00:37.080Z,10.74
2023-05-09T18:02:44.771Z,10.59
2023-05-09T18:04:53.339Z,10.42
2023-05-09T18:07:01.314Z,10.25
2023-05-09T18:09:10.367Z,10.11
2023-05-09T18:13:29.739Z,9.81
2023-05-09T18:15:40.130Z,9.68
2023-05-09T18:17:48.800Z,9.49
2023-05-09T18:19:57.610Z,9.36
2023-05-09T18:22:05.749Z,9.2
2023-05-09T18:24:16.883Z,9.01
2023-05-09T18:26:24.580Z,8.88
2023-05-09T18:28:33.257Z,8.69
2023-05-09T18:30:41.584Z,8.59
2023-05-09T18:32:49.604Z,8.45
2023-05-09T18:35:07.111Z,8.3
2023-05-09T18:37:15.516Z,8.25
2023-05-09T18:39:26.431Z,8.15
2023-05-09T18:41:37.385Z,8.02
2023-05-09T18:43:45.440Z,7.91
2023-05-09T18:45:53.342Z,7.76
2023-05-09T18:48:02.382Z,7.66
2023-05-09T18:50:11.998Z,7.59
2023-05-09T18:52:20.663Z,7.49
2023-05-09T18:54:31.347Z,7.38
2023-05-09T18:56:39.994Z,7.33
2023-05-09T18:58:56.507Z,7.3
2023-05-09T19:01:05.422Z,7.27
2023-05-09T19:03:15.481Z,7.18
2023-05-09T19:05:26.206Z,7.13
2023-05-09T19:07:35.827Z,7.11
2023-05-09T19:09:45.352Z,7.02
2023-05-09T19:11:56.162Z,6.94
2023-05-09T19:14:06.097Z,6.87
2023-05-09T19:16:21.164Z,6.81
2023-05-09T19:18:33.860Z,6.78
2023-05-09T19:20:46.994Z,6.73
2023-05-09T19:25:59.589Z,6.56
2023-05-09T19:28:10.511Z,6.5
2023-05-09T19:30:24.197Z,6.45
2023-05-09T19:32:35.127Z,6.39
2023-05-09T19:34:48.819Z,6.31
2023-05-09T19:37:02.991Z,6.23
2023-05-09T19:39:17.802Z,6.14
2023-05-09T19:41:38.594Z,6.1
2023-05-09T19:43:54.141Z,6
2023-05-09T19:46:04.341Z,5.91
2023-05-09T19:48:24.475Z,5.84
2023-05-09T19:50:45.389Z,5.78
2023-05-09T19:52:59.950Z,5.74
2023-05-09T19:55:15.808Z,5.65
2023-05-09T19:57:33.197Z,5.52
2023-05-09T19:59:41.337Z,5.47
2023-05-09T20:01:50.456Z,5.41
2023-05-09T20:04:00.238Z,5.39
2023-05-09T20:09:13.250Z,5.28
2023-05-09T20:11:25.105Z,5.28
2023-05-09T20:13:36.989Z,5.24
2023-05-09T20:15:51.271Z,5.14
2023-05-09T20:20:19.001Z,5.01
2023-05-09T20:22:29.887Z,4.96
2023-05-09T20:24:41.254Z,4.99
2023-05-09T20:26:52.396Z,4.96
2023-05-09T20:29:04.785Z,4.94
2023-05-09T20:31:16.492Z,4.9
2023-05-09T20:33:27.853Z,4.89
2023-05-09T20:35:41.033Z,4.81
2023-05-09T20:37:52.781Z,4.78
2023-05-09T20:40:04.496Z,4.72
2023-05-09T20:42:16.008Z,4.68
2023-05-09T20:44:26.746Z,4.66
2023-05-09T20:46:38.082Z,4.65
2023-05-09T20:48:49.207Z,4.6
2023-05-09T20:50:59.579Z,4.6
2023-05-09T20:53:09.049Z,4.6
2023-05-09T20:55:16.099Z,4.61
2023-05-09T20:57:23.243Z,4.59
2023-05-09T20:59:31.168Z,4.51
2023-05-09T21:01:39.140Z,4.48
2023-05-09T21:03:49.342Z,4.48
2023-05-09T21:05:56.144Z,4.49
2023-05-09T21:08:03.761Z,4.45
2023-05-09T21:10:11.063Z,4.44
2023-05-09T21:12:19.080Z,4.4
2023-05-09T21:14:27.671Z,4.4
2023-05-09T21:16:33.970Z,4.41
2023-05-09T21:18:41.259Z,4.44
2023-05-09T21:20:48.765Z,4.46
2023-05-09T21:22:56.951Z,4.46
2023-05-09T21:25:04.669Z,4.46
2023-05-09T21:27:11.370Z,4.46
2023-05-09T21:29:17.682Z,4.51
2023-05-09T21:31:25.546Z,4.47
2023-05-09T21:33:32.661Z,4.54
2023-05-09T21:35:39.209Z,4.5
2023-05-09T21:37:46.467Z,4.52
2023-05-09T21:39:53.977Z,4.54
2023-05-09T21:42:01.411Z,4.52
2023-05-09T21:44:10.779Z,4.48
2023-05-09T21:46:18.489Z,4.43
2023-05-09T21:48:25.170Z,4.42
2023-05-09T21:50:32.535Z,4.39
2023-05-09T21:52:39.571Z,4.33
2023-05-09T21:54:47.204Z,4.28
2023-05-09T21:56:53.272Z,4.25
2023-05-09T21:58:59.894Z,4.27
2023-05-09T22:01:07.468Z,4.24
2023-05-09T22:03:15.512Z,4.24
2023-05-09T22:05:23.523Z,4.18
2023-05-09T22:07:30.542Z,4.16
2023-05-09T22:09:37.466Z,4.12
2023-05-09T22:11:43.707Z,4.09
2023-05-09T22:13:51.482Z,4.12
2023-05-09T22:15:58.026Z,4.12
2023-05-09T22:18:05.689Z,4.15
2023-05-09T22:20:14.644Z,4.11
2023-05-09T22:22:22.635Z,4.08
2023-05-09T22:24:29.110Z,4.08
2023-05-09T22:26:36.005Z,4.08
2023-05-09T22:28:42.413Z,4.06
2023-05-09T22:30:48.600Z,4.09
2023-05-09T22:32:55.133Z,4.03
2023-05-09T22:35:02.046Z,4.07
2023-05-09T22:37:09.202Z,4.08
2023-05-09T22:39:16.047Z,4.08
2023-05-09T22:41:22.419Z,4.05
2023-05-09T22:43:33.809Z,4
2023-05-09T22:45:45.806Z,3.99
2023-05-09T22:47:52.583Z,3.99
2023-05-09T22:49:59.400Z,3.97
2023-05-09T22:52:05.844Z,3.94
2023-05-09T22:54:15.759Z,4.05
2023-05-09T22:56:22.218Z,4.07
2023-05-09T22:58:30.967Z,4.07
2023-05-09T23:00:37.592Z,4
2023-05-09T23:02:44.765Z,3.93
2023-05-09T23:04:52.519Z,3.91
2023-05-09T23:06:58.667Z,3.88
2023-05-09T23:09:05.394Z,3.87
2023-05-09T23:11:12.614Z,3.9
2023-05-09T23:13:19.185Z,3.93
2023-05-09T23:15:26.867Z,3.93
2023-05-09T23:17:33.943Z,3.89
2023-05-09T23:19:41.342Z,3.8
2023-05-09T23:21:48.661Z,3.72
2023-05-09T23:23:55.107Z,3.66
2023-05-09T23:26:02.919Z,3.63
2023-05-09T23:28:09.463Z,3.65
2023-05-09T23:30:16.335Z,3.6
2023-05-09T23:32:23.919Z,3.54
2023-05-09T23:34:30.626Z,3.46
2023-05-09T23:36:37.274Z,3.42
2023-05-09T23:38:47.285Z,3.39
2023-05-09T23:40:54.444Z,3.36
2023-05-09T23:43:01.323Z,3.35
2023-05-09T23:45:07.820Z,3.35
2023-05-09T23:47:15.090Z,3.37
2023-05-09T23:49:21.969Z,3.39
2023-05-09T23:51:28.757Z,3.38
2023-05-09T23:53:36.146Z,3.33
2023-05-09T23:55:43.267Z,3.31
2023-05-09T23:57:49.688Z,3.3
2023-05-09T23:59:57.341Z,3.28
